Time;durP1;ratioP1;P1;durP2;ratioP2;P2;SDS_P1;SDS_P2;PMS_P1;PMS_P2;Temp;Humidity;BMP_temperature;BMP_pressure;BME280_temperature;BME280_humidity;BME280_pressure;Samples;Min_cycle;Max_cycle;Signal;HPM_P1;HPM_P2
2023/08/02 00:02:13;;;;;;;9.75;3.72;;;;;;;14.56;100.00;100077.81;5032848;28;20013;-78
2023/08/02 00:04:39;;;;;;;9.23;3.83;;;;;;;14.67;100.00;100102.00;5015139;28;20375;-78
2023/08/02 00:07:05;;;;;;;8.52;4.35;;;;;;;14.51;100.00;100080.00;5032691;28;20029;-78
2023/08/02 00:09:31;;;;;;;10.45;4.13;;;;;;;14.56;100.00;100084.78;5032968;28;20441;-78
2023/08/02 00:11:57;;;;;;;13.18;4.40;;;;;;;14.56;100.00;100089.97;5032734;28;20085;-79
2023/08/02 00:14:22;;;;;;;10.88;4.78;;;;;;;14.47;100.00;100090.81;5032743;28;20037;-77
2023/08/02 00:16:48;;;;;;;10.68;4.00;;;;;;;14.48;100.00;100106.25;5032345;28;20116;-79
2023/08/02 00:19:13;;;;;;;13.15;3.78;;;;;;;14.31;100.00;100091.34;5032656;28;20026;-79
2023/08/02 00:21:38;;;;;;;7.82;3.83;;;;;;;14.26;100.00;100085.75;5032748;28;20359;-78
2023/08/02 00:24:04;;;;;;;11.10;3.70;;;;;;;14.34;100.00;100106.63;5032196;28;20108;-77
2023/08/02 00:26:29;;;;;;;7.55;3.85;;;;;;;14.30;100.00;100102.69;5032331;28;20104;-78
2023/08/02 00:28:55;;;;;;;9.30;3.42;;;;;;;14.20;100.00;100109.66;5032519;28;20025;-78
2023/08/02 00:31:20;;;;;;;8.35;3.72;;;;;;;14.21;100.00;100109.53;5032411;28;20025;-78
2023/08/02 00:33:45;;;;;;;10.38;3.95;;;;;;;14.17;100.00;100104.75;5032560;28;20027;-78
2023/08/02 00:36:11;;;;;;;11.80;3.85;;;;;;;14.04;100.00;100090.25;5032508;28;20021;-79
2023/08/02 00:38:37;;;;;;;11.40;3.90;;;;;;;14.08;100.00;100101.22;5014686;28;20544;-78
2023/08/02 00:41:06;;;;;;;8.90;3.55;;;;;;;13.60;100.00;100025.91;5032229;28;20555;-78
2023/08/02 00:43:38;;;;;;;9.27;4.13;;;;;;;13.56;100.00;100009.78;5032755;28;20079;-78
2023/08/02 00:46:03;;;;;;;8.60;3.72;;;;;;;13.98;100.00;100080.44;5032255;28;20033;-78
2023/08/02 00:48:29;;;;;;;7.50;3.67;;;;;;;13.81;100.00;100056.94;5032329;28;20025;-78
2023/08/02 00:50:54;;;;;;;7.18;3.25;;;;;;;13.82;100.00;100056.78;5032284;28;20490;-77
2023/08/02 00:53:21;;;;;;;7.28;3.60;;;;;;;13.82;100.00;100064.56;5032280;28;20489;-78
2023/08/02 00:55:47;;;;;;;9.77;3.40;;;;;;;13.90;100.00;100067.31;5032411;28;20056;-78
2023/08/02 00:58:13;;;;;;;7.78;3.63;;;;;;;13.71;100.00;100029.19;5032375;28;20034;-78
2023/08/02 01:00:38;;;;;;;7.78;3.60;;;;;;;13.96;100.00;100056.41;5014647;28;20030;-77
2023/08/02 01:03:04;;;;;;;10.50;3.55;;;;;;;13.73;100.00;100003.94;5032202;28;20022;-78
2023/08/02 01:05:34;;;;;;;11.35;3.90;;;;;;;14.06;100.00;100056.41;5032238;28;20022;-79
2023/08/02 01:08:04;;;;;;;7.38;3.53;;;;;;;14.15;100.00;100052.13;5032033;28;20026;-78
2023/08/02 01:11:07;;;;;;;7.85;3.47;;;;;;;14.26;100.00;100054.59;5032186;28;20474;-78
2023/08/02 01:13:36;;;;;;;7.45;3.53;;;;;;;14.29;100.00;100049.94;4952059;29;20507;-78
2023/08/02 01:16:03;;;;;;;7.47;3.42;;;;;;;14.13;100.00;100013.31;4951763;29;20511;-78
2023/08/02 01:18:28;;;;;;;9.05;3.58;;;;;;;14.44;100.00;100058.09;4952070;29;20392;-78
2023/08/02 01:20:54;;;;;;;6.97;3.28;;;;;;;14.48;100.00;100054.31;4951807;29;20031;-76
2023/08/02 01:23:19;;;;;;;9.15;3.70;;;;;;;14.20;100.00;100003.19;4951961;29;20031;-78
2023/08/02 01:25:47;;;;;;;9.68;3.20;;;;;;;14.54;100.00;100048.53;4951952;29;20465;-78
2023/08/02 01:28:18;;;;;;;8.45;3.05;;;;;;;14.58;100.00;100060.28;4951875;28;20477;-79
2023/08/02 01:30:44;;;;;;;;;;;;;;;14.63;100.00;100046.88;4952251;29;20035;-78
2023/08/02 01:33:10;;;;;;;7.80;3.20;;;;;;;14.64;100.00;100051.09;4951918;29;19911;-77
2023/08/02 01:35:36;;;;;;;11.32;3.80;;;;;;;14.66;100.00;100043.19;4953026;28;20061;-79
2023/08/02 01:38:02;;;;;;;7.38;3.38;;;;;;;14.69;100.00;100043.72;4955355;29;20117;-78
2023/08/02 01:40:27;;;;;;;8.73;3.33;;;;;;;14.72;100.00;100046.00;4954975;29;20102;-79
2023/08/02 01:42:52;;;;;;;10.10;3.30;;;;;;;14.77;100.00;100032.59;4955282;29;20043;-79
2023/08/02 01:45:18;;;;;;;9.73;3.58;;;;;;;14.79;100.00;100041.91;4955471;29;20038;-78
2023/08/02 01:47:43;;;;;;;7.97;3.33;;;;;;;14.70;100.00;100026.34;5003959;28;20037;-79
2023/08/02 01:50:08;;;;;;;11.38;3.97;;;;;;;14.83;100.00;100026.81;5035157;28;20032;-78
2023/08/02 01:52:34;;;;;;;7.50;3.80;;;;;;;14.73;100.00;100006.06;5035393;28;20017;-79
2023/08/02 01:55:00;;;;;;;6.07;2.78;;;;;;;14.72;100.00;99995.81;5017019;28;20064;-79
2023/08/02 01:57:25;;;;;;;7.78;3.33;;;;;;;14.83;100.00;100011.22;5017410;28;20466;-79
2023/08/02 01:59:51;;;;;;;12.63;3.70;;;;;;;14.84;100.00;100002.47;5035059;28;20434;-79
2023/08/02 02:02:16;;;;;;;9.15;3.45;;;;;;;14.82;100.00;100005.22;5034899;28;20036;-79
2023/08/02 02:04:42;;;;;;;13.05;3.38;;;;;;;14.57;100.00;99959.94;5034820;28;20533;-79
2023/08/02 02:07:07;;;;;;;11.43;3.72;;;;;;;14.81;100.00;99987.16;5035087;28;20654;-79
2023/08/02 02:09:33;;;;;;;8.45;3.13;;;;;;;14.80;100.00;99973.34;5035020;28;20068;-78
2023/08/02 02:11:58;;;;;;;9.30;3.30;;;;;;;14.77;100.00;99965.84;5034892;28;20022;-79
2023/08/02 02:14:23;;;;;;;11.20;3.80;;;;;;;14.73;100.00;99948.06;5017070;28;20026;-78
2023/08/02 02:16:48;;;;;;;8.43;3.45;;;;;;;14.55;100.00;99938.47;5034529;28;20033;-79
2023/08/02 02:19:14;;;;;;;8.75;3.50;;;;;;;14.64;100.00;99965.34;5034719;28;20033;-79
2023/08/02 02:21:39;;;;;;;14.07;3.70;;;;;;;14.58;100.00;99955.53;5034794;28;20026;-79
2023/08/02 02:24:04;;;;;;;8.73;3.40;;;;;;;14.45;100.00;99929.88;5034743;28;20036;-79
2023/08/02 02:26:30;;;;;;;7.97;3.30;;;;;;;14.64;100.00;99931.56;5034645;28;20022;-79
2023/08/02 02:28:55;;;;;;;8.77;3.78;;;;;;;14.68;100.00;99937.31;5034722;28;20029;-79
2023/08/02 02:31:20;;;;;;;9.70;3.35;;;;;;;14.58;100.00;99907.00;5034310;28;20568;-79
2023/08/02 02:33:46;;;;;;;6.75;3.50;;;;;;;14.70;100.00;99907.63;5034474;28;20052;-79
2023/08/02 02:36:11;;;;;;;9.20;4.00;;;;;;;14.63;100.00;99901.34;5034360;28;20112;-79
2023/08/02 02:38:36;;;;;;;8.23;3.58;;;;;;;14.73;100.00;99914.28;5034481;28;20082;-79
2023/08/02 02:41:01;;;;;;;9.60;3.70;;;;;;;14.76;100.00;99912.25;5034480;28;20161;-79
2023/08/02 02:43:27;;;;;;;10.55;4.20;;;;;;;14.76;100.00;99908.81;5034428;28;20375;-79
2023/08/02 02:45:52;;;;;;;6.85;3.47;;;;;;;14.62;100.00;99874.56;5033949;28;20491;-79
2023/08/02 02:48:17;;;;;;;12.63;3.90;;;;;;;14.75;100.00;99895.00;5034200;28;20028;-79
2023/08/02 02:50:43;;;;;;;9.68;3.63;;;;;;;14.70;100.00;99894.63;5034287;28;20032;-79
2023/08/02 02:53:08;;;;;;;9.52;3.92;;;;;;;14.64;100.00;99893.41;5034052;28;20029;-79
2023/08/02 02:55:34;;;;;;;10.02;3.95;;;;;;;14.77;100.00;99905.25;5034039;28;20053;-79
2023/08/02 02:57:59;;;;;;;8.90;4.10;;;;;;;14.74;100.00;99898.56;5034175;28;20068;-79
2023/08/02 03:00:25;;;;;;;13.13;3.63;;;;;;;14.81;100.00;99904.00;5033892;28;20037;-79
2023/08/02 03:02:50;;;;;;;11.30;3.65;;;;;;;14.82;100.00;99888.25;5033851;28;20025;-79
2023/08/02 03:05:15;;;;;;;10.75;3.80;;;;;;;14.82;100.00;99879.63;5033771;28;20390;-79
2023/08/02 03:07:42;;;;;;;8.90;3.95;;;;;;;14.83;100.00;99882.06;5033871;28;20116;-78
2023/08/02 03:10:07;;;;;;;7.90;3.72;;;;;;;14.77;100.00;99858.47;5033859;28;20112;-79
2023/08/02 03:12:33;;;;;;;12.38;3.95;;;;;;;14.59;100.00;99815.09;5033798;28;20457;-80
2023/08/02 03:14:58;;;;;;;8.15;3.10;;;;;;;14.73;100.00;99812.94;5033453;28;20017;-79
2023/08/02 03:17:23;;;;;;;7.93;3.60;;;;;;;14.68;100.00;99800.41;5033471;28;20029;-79
2023/08/02 03:19:49;;;;;;;10.27;3.58;;;;;;;14.82;100.00;99827.66;5015767;28;20079;-79
2023/08/02 03:22:14;;;;;;;9.43;3.72;;;;;;;14.88;100.00;99827.06;5033697;28;20064;-79
2023/08/02 03:24:39;;;;;;;8.07;3.90;;;;;;;14.89;100.00;99818.31;5033538;28;20029;-76
2023/08/02 03:27:06;;;;;;;8.35;3.55;;;;;;;14.79;100.00;99800.19;5033358;28;20021;-78
2023/08/02 03:29:31;;;;;;;12.90;3.88;;;;;;;14.86;100.00;99801.22;5015838;28;20474;-79
2023/08/02 03:31:56;;;;;;;8.88;3.28;;;;;;;14.85;100.00;99801.38;5033474;28;20087;-79
2023/08/02 03:34:22;;;;;;;8.55;3.53;;;;;;;14.88;100.00;99791.50;5033067;28;20079;-79
2023/08/02 03:36:47;;;;;;;8.07;3.22;;;;;;;14.88;100.00;99795.88;5033251;28;20090;-79
2023/08/02 03:39:12;;;;;;;6.78;3.33;;;;;;;14.88;100.00;99806.28;5033259;28;20021;-79
2023/08/02 03:41:38;;;;;;;7.68;3.15;;;;;;;14.88;100.00;99801.88;5032846;28;20045;-79
2023/08/02 03:44:03;;;;;;;6.97;3.10;;;;;;;14.88;100.00;99795.88;5033180;28;20588;-78
2023/08/02 03:46:29;;;;;;;8.32;3.22;;;;;;;14.73;100.00;99769.56;5033102;28;20605;-78
2023/08/02 03:48:55;;;;;;;6.72;3.25;;;;;;;14.81;100.00;99776.63;5033125;28;20018;-78
2023/08/02 03:51:20;;;;;;;9.60;3.40;;;;;;;14.86;100.00;99772.63;5015479;28;20021;-80
2023/08/02 03:53:45;;;;;;;7.32;3.33;;;;;;;14.84;100.00;99771.13;5032939;28;20022;-78
2023/08/02 03:56:11;;;;;;;8.05;3.53;;;;;;;14.91;100.00;99770.38;5032724;28;20079;-79
2023/08/02 03:58:36;;;;;;;7.30;3.38;;;;;;;14.91;100.00;99760.00;5032246;28;20040;-79
2023/08/02 04:01:02;;;;;;;7.07;3.15;;;;;;;14.93;100.00;99752.84;5032903;28;20029;-78
2023/08/02 04:03:27;;;;;;;8.90;3.40;;;;;;;14.96;100.00;99748.34;5032736;28;20022;-79
2023/08/02 04:05:52;;;;;;;8.07;3.00;;;;;;;14.99;100.00;99755.81;5032768;28;20418;-79
2023/08/02 04:08:17;;;;;;;6.20;3.20;;;;;;;14.97;100.00;99748.19;5032770;28;20021;-79
2023/08/02 04:10:43;;;;;;;7.20;3.63;;;;;;;14.95;100.00;99744.13;5032723;28;20025;-78
2023/08/02 04:13:08;;;;;;;6.93;3.30;;;;;;;14.91;100.00;99739.19;5032750;28;20033;-78
2023/08/02 04:15:34;;;;;;;8.85;3.83;;;;;;;14.90;100.00;99731.56;5032778;28;20499;-79
2023/08/02 04:18:00;;;;;;;8.93;3.97;;;;;;;14.85;100.00;99720.81;5032551;28;20041;-77
2023/08/02 04:20:26;;;;;;;6.80;3.75;;;;;;;14.94;100.00;99714.66;5032637;28;20479;-77
2023/08/02 04:22:51;;;;;;;7.30;3.50;;;;;;;14.92;100.00;99708.81;5032478;28;20036;-77
2023/08/02 04:25:17;;;;;;;9.02;4.10;;;;;;;14.91;100.00;99707.19;5032570;28;20486;-77
2023/08/02 04:27:43;;;;;;;8.65;3.83;;;;;;;14.93;100.00;99708.66;5032598;28;20486;-78
2023/08/02 04:30:08;;;;;;;8.45;3.67;;;;;;;14.79;100.00;99675.44;5032500;28;20057;-78
2023/08/02 04:32:34;;;;;;;7.45;4.18;;;;;;;14.92;100.00;99682.81;5032495;28;20037;-78
2023/08/02 04:34:59;;;;;;;7.18;4.13;;;;;;;14.83;100.00;99670.72;5032432;28;20033;-78
2023/08/02 04:37:25;;;;;;;10.80;4.15;;;;;;;14.86;100.00;99665.25;5032465;28;20502;-78
2023/08/02 04:39:50;;;;;;;7.88;4.63;;;;;;;14.91;100.00;99650.00;5032301;28;20021;-78
2023/08/02 04:42:16;;;;;;;10.20;4.50;;;;;;;14.92;100.00;99659.44;5032258;28;20029;-78
2023/08/02 04:44:41;;;;;;;9.02;4.25;;;;;;;14.91;100.00;99650.81;5032712;28;20032;-78
2023/08/02 04:47:07;;;;;;;11.73;4.43;;;;;;;14.91;100.00;99648.22;5032390;28;20026;-77
2023/08/02 04:49:32;;;;;;;9.98;4.57;;;;;;;14.93;100.00;99638.47;5032259;28;20021;-78
2023/08/02 04:51:57;;;;;;;8.73;4.35;;;;;;;14.93;100.00;99624.66;5032068;28;20031;-78
2023/08/02 04:54:23;;;;;;;9.43;4.75;;;;;;;14.93;100.00;99617.69;5032284;28;20517;-78
2023/08/02 04:56:48;;;;;;;8.98;4.80;;;;;;;14.95;100.00;99609.75;5032378;28;20057;-78
2023/08/02 04:59:13;;;;;;;8.73;4.35;;;;;;;14.97;100.00;99609.59;5032265;28;20507;-78
2023/08/02 05:01:39;;;;;;;9.60;5.03;;;;;;;14.93;100.00;99593.47;5032194;28;20080;-78
2023/08/02 05:04:07;;;;;;;11.40;4.63;;;;;;;14.86;100.00;99580.28;5032013;28;20064;-78
2023/08/02 05:06:33;;;;;;;10.23;4.88;;;;;;;14.91;100.00;99582.41;5032112;28;20478;-78
2023/08/02 05:08:59;;;;;;;11.43;5.63;;;;;;;14.98;100.00;99588.63;5032085;28;20080;-78
2023/08/02 05:11:24;;;;;;;8.88;4.78;;;;;;;15.03;100.00;99594.16;5035144;28;20025;-78
2023/08/02 05:13:49;;;;;;;9.93;5.32;;;;;;;14.96;100.00;99574.97;5050835;28;20037;-78
2023/08/02 05:16:15;;;;;;;11.25;4.97;;;;;;;15.07;100.00;99597.28;5035999;28;20040;-78
2023/08/02 05:18:40;;;;;;;10.73;4.60;;;;;;;15.07;100.00;99595.50;5035921;28;20421;-78
2023/08/02 05:21:13;;;;;;;11.20;5.38;;;;;;;15.05;100.00;99589.66;5035703;28;20018;-78
2023/08/02 05:23:39;;;;;;;12.27;5.00;;;;;;;15.02;100.00;99578.72;5035948;28;20079;-78
2023/08/02 05:26:06;;;;;;;9.38;4.82;;;;;;;14.90;100.00;99549.59;5035836;28;20112;-77
2023/08/02 05:28:32;;;;;;;12.45;5.15;;;;;;;14.98;100.00;99565.22;5034964;28;20488;-80
2023/08/02 05:30:57;;;;;;;11.65;5.50;;;;;;;14.99;100.00;99566.88;5035900;28;20032;-78
2023/08/02 05:33:22;;;;;;;10.13;5.28;;;;;;;14.98;100.00;99549.63;5035673;28;20021;-78
2023/08/02 05:35:48;;;;;;;7.55;4.75;;;;;;;14.96;100.00;99537.78;5035500;28;20022;-78
2023/08/02 05:38:13;;;;;;;10.25;5.20;;;;;;;14.98;100.00;99530.63;5035733;28;20022;-77
2023/08/02 05:40:39;;;;;;;8.75;4.82;;;;;;;14.97;100.00;99521.19;5017066;28;20040;-77
2023/08/02 05:43:06;;;;;;;7.97;4.90;;;;;;;14.98;100.00;99517.63;5017345;28;20491;-78
2023/08/02 05:45:32;;;;;;;7.68;4.65;;;;;;;14.98;100.00;99502.03;5035447;28;20025;-77
2023/08/02 05:47:58;;;;;;;10.80;5.00;;;;;;;14.98;100.00;99502.84;5035185;28;20078;-78
2023/08/02 05:50:23;;;;;;;9.15;4.78;;;;;;;14.92;100.00;99482.66;5035130;28;20136;-78
2023/08/02 05:52:49;;;;;;;8.00;4.80;;;;;;;15.03;100.00;99495.38;5035255;28;20044;-77
2023/08/02 05:55:14;;;;;;;8.55;4.78;;;;;;;14.93;100.00;99476.50;5035384;28;20488;-78
2023/08/02 05:57:40;;;;;;;9.63;5.70;;;;;;;14.98;100.00;99474.25;5035229;28;20037;-77
2023/08/02 06:00:07;;;;;;;9.25;4.93;;;;;;;14.79;100.00;99438.94;5035118;28;20033;-78
2023/08/02 06:02:32;;;;;;;8.35;4.70;;;;;;;14.79;100.00;99438.94;5034548;28;20100;-78
2023/08/02 06:04:57;;;;;;;9.27;5.00;;;;;;;15.01;100.00;99462.72;5034934;28;20450;-78
2023/08/02 06:07:23;;;;;;;8.88;4.95;;;;;;;15.01;100.00;99447.94;5035073;28;20356;-78
2023/08/02 06:09:48;;;;;;;9.13;5.15;;;;;;;14.97;100.00;99431.03;5034972;28;20021;-77
2023/08/02 06:12:13;;;;;;;10.27;5.28;;;;;;;15.06;100.00;99432.69;5035101;28;20065;-79
2023/08/02 06:14:39;;;;;;;8.65;4.90;;;;;;;15.11;100.00;99425.19;5034787;28;20105;-76
2023/08/02 06:17:04;;;;;;;7.68;4.35;;;;;;;15.15;100.00;99423.13;5034581;28;20065;-77
2023/08/02 06:19:30;;;;;;;8.43;4.88;;;;;;;15.16;100.00;99415.16;5034836;28;20083;-76
2023/08/02 06:21:56;;;;;;;7.45;4.18;;;;;;;15.15;100.00;99403.13;5034137;28;20021;-77
2023/08/02 06:24:21;;;;;;;7.05;4.25;;;;;;;14.88;100.00;99351.41;5034842;28;20032;-77
2023/08/02 06:26:47;;;;;;;8.02;4.47;;;;;;;15.08;100.00;99376.13;5034758;28;20096;-77
2023/08/02 06:29:12;;;;;;;7.85;4.30;;;;;;;15.20;100.00;99389.63;5034534;28;20026;-78
2023/08/02 06:31:38;;;;;;;7.20;4.18;;;;;;;15.19;100.00;99380.19;5034553;28;20437;-77
2023/08/02 06:34:03;;;;;;;7.97;3.80;;;;;;;15.10;100.00;99363.78;5034658;28;20029;-76
2023/08/02 06:36:28;;;;;;;8.15;3.95;;;;;;;15.18;100.00;99361.19;5034344;28;20467;-75
2023/08/02 06:38:54;;;;;;;6.50;3.83;;;;;;;15.15;100.00;99347.72;5034534;28;20026;-77
2023/08/02 06:41:19;;;;;;;5.68;3.25;;;;;;;15.15;100.00;99355.50;5034152;28;20044;-77
2023/08/02 06:43:44;;;;;;;5.40;3.45;;;;;;;15.17;100.00;99346.56;5034306;28;20025;-78
2023/08/02 06:46:10;;;;;;;6.40;3.65;;;;;;;15.10;100.00;99329.97;5030721;28;20037;-77
2023/08/02 06:48:35;;;;;;;5.75;3.13;;;;;;;14.98;100.00;99307.88;5034217;28;20033;-79
2023/08/02 06:51:00;;;;;;;4.53;2.75;;;;;;;15.16;100.00;99331.13;5034003;28;20027;-77
2023/08/02 06:53:26;;;;;;;4.78;2.90;;;;;;;15.16;100.00;99318.94;5034068;28;20029;-77
2023/08/02 06:55:51;;;;;;;4.88;3.05;;;;;;;15.23;100.00;99307.88;5034013;28;20116;-77
2023/08/02 06:58:16;;;;;;;5.13;2.80;;;;;;;15.29;100.00;99299.41;5033939;28;20041;-79
2023/08/02 07:00:42;;;;;;;4.68;2.53;;;;;;;15.29;100.00;99299.41;5034146;28;20047;-80
2023/08/02 07:03:07;;;;;;;4.65;3.03;;;;;;;15.24;100.00;99280.88;5033798;28;20023;-79
2023/08/02 07:05:34;;;;;;;5.03;2.83;;;;;;;15.36;100.00;99279.59;5033852;28;20033;-75
2023/08/02 07:08:01;;;;;;;4.53;2.85;;;;;;;15.40;100.00;99271.28;5033786;28;20025;-75
2023/08/02 07:10:27;;;;;;;5.35;3.00;;;;;;;15.38;100.00;99262.03;5033744;28;20036;-77
2023/08/02 07:12:53;;;;;;;3.58;2.53;;;;;;;15.32;100.00;99253.06;5033617;28;20025;-75
2023/08/02 07:15:19;;;;;;;4.05;2.70;;;;;;;15.23;100.00;99229.84;5033893;28;20034;-79
2023/08/02 07:17:45;;;;;;;4.65;2.90;;;;;;;15.38;100.00;99262.84;5033495;28;20052;-78
2023/08/02 07:20:14;;;;;;;4.40;2.65;;;;;;;15.38;100.00;99256.81;5033551;28;20578;-81
2023/08/02 07:22:42;;;;;;;4.65;2.88;;;;;;;15.30;100.00;99234.22;5033482;28;20390;-76
2023/08/02 07:25:08;;;;;;;4.70;2.88;;;;;;;15.40;100.00;99253.06;5033505;28;20040;-79
2023/08/02 07:27:34;;;;;;;4.53;2.72;;;;;;;15.38;100.00;99238.63;5033636;28;20033;-79
2023/08/02 07:29:59;;;;;;;5.20;2.70;;;;;;;15.36;100.00;99249.19;5033439;28;20030;-75
2023/08/02 07:32:25;;;;;;;5.13;2.72;;;;;;;15.16;100.00;99219.31;5032532;28;20107;-79
2023/08/02 07:34:51;;;;;;;4.38;2.80;;;;;;;15.31;100.00;99235.84;5033239;28;20031;-80
2023/08/02 07:37:18;;;;;;;4.93;3.00;;;;;;;15.21;100.00;99222.22;5019418;28;20034;-78
2023/08/02 07:39:44;;;;;;;4.30;2.90;;;;;;;15.35;100.00;99236.34;5014354;28;20049;-80
2023/08/02 07:42:10;;;;;;;5.18;2.97;;;;;;;15.34;100.00;99219.09;5013364;28;20042;-80
2023/08/02 07:44:37;;;;;;;4.20;2.78;;;;;;;15.21;100.00;99198.81;5013413;28;20034;-81
2023/08/02 07:47:03;;;;;;;5.50;3.10;;;;;;;15.29;100.00;99198.00;5013389;28;20030;-80
2023/08/02 07:49:31;;;;;;;5.00;3.17;;;;;;;15.21;100.00;99171.03;4995823;28;20038;-80
2023/08/02 07:51:57;;;;;;;4.72;2.95;;;;;;;15.26;100.00;99165.34;5013267;28;20383;-81
2023/08/02 07:54:26;;;;;;;4.40;3.20;;;;;;;15.58;100.00;99195.63;4996040;28;20380;-80
2023/08/02 07:56:56;;;;;;;5.35;3.05;;;;;;;15.44;100.00;99152.94;5013249;28;20036;-78
2023/08/02 07:59:22;;;;;;;4.63;2.92;;;;;;;15.47;100.00;99141.38;4995384;28;20475;-83
2023/08/02 08:01:47;;;;;;;4.75;3.15;;;;;;;15.71;100.00;99162.09;5013195;28;20083;-81
2023/08/02 08:04:13;;;;;;;4.15;3.28;;;;;;;15.77;100.00;99179.63;5013118;28;20084;-79
2023/08/02 08:06:38;;;;;;;4.82;3.03;;;;;;;15.73;100.00;99161.91;5013027;28;20037;-82
2023/08/02 08:09:03;;;;;;;4.63;3.38;;;;;;;15.81;100.00;99167.09;5013044;28;20026;-85
2023/08/02 08:11:29;;;;;;;5.22;3.38;;;;;;;15.48;100.00;99103.97;5013128;28;20040;-81
2023/08/02 08:13:55;;;;;;;4.78;3.53;;;;;;;15.63;100.00;99115.31;5013055;28;20026;-79
2023/08/02 08:16:21;;;;;;;4.95;3.40;;;;;;;15.94;100.00;99166.56;5012963;28;20026;-79
2023/08/02 08:18:46;;;;;;;5.03;3.65;;;;;;;15.46;100.00;99069.50;5012977;28;20032;-80
2023/08/02 08:21:12;;;;;;;5.55;3.70;;;;;;;15.99;100.00;99152.03;5012744;28;20459;-79
2023/08/02 08:23:39;;;;;;;4.45;3.78;;;;;;;15.99;100.00;99162.44;5012964;28;20025;-80
2023/08/02 08:26:05;;;;;;;5.32;4.05;;;;;;;16.00;100.00;99156.25;5012831;28;20029;-80
2023/08/02 08:28:30;;;;;;;4.80;3.55;;;;;;;15.96;100.00;99115.13;5012800;28;20464;-79
2023/08/02 08:31:00;;;;;;;5.47;3.72;;;;;;;16.18;100.00;99134.31;5012769;28;20362;-79
2023/08/02 08:33:26;;;;;;;4.03;3.13;;;;;;;16.13;100.00;99132.25;5012667;28;20030;-80
2023/08/02 08:35:51;;;;;;;4.38;3.38;;;;;;;16.19;100.00;99125.53;5012734;28;20030;-81
2023/08/02 08:38:16;;;;;;;7.00;3.10;;;;;;;16.17;100.00;99120.50;5012820;28;20034;-81
2023/08/02 08:40:42;;;;;;;3.35;2.63;;;;;;;16.28;100.00;99107.06;5012864;28;20048;-87
2023/08/02 08:43:08;;;;;;;3.47;2.60;;;;;;;16.41;100.00;99122.09;5012806;28;20041;-83
2023/08/02 08:45:35;;;;;;;2.85;1.98;;;;;;;16.06;100.00;99066.22;5012759;28;20050;-81
2023/08/02 08:48:01;;;;;;;2.83;1.95;;;;;;;16.59;100.00;99124.38;5016739;28;20038;-82
2023/08/02 08:50:27;;;;;;;3.38;2.08;;;;;;;16.53;100.00;99107.66;5016590;28;20034;-82
2023/08/02 08:52:55;;;;;;;2.55;1.80;;;;;;;16.68;100.00;99084.25;5016614;28;20083;-80
2023/08/02 08:55:23;;;;;;;2.40;1.95;;;;;;;17.09;100.00;99112.50;5016501;28;20029;-80
2023/08/02 08:57:50;;;;;;;3.22;2.17;;;;;;;17.24;100.00;99120.34;4998394;28;20191;-83
2023/08/02 09:00:15;;;;;;;3.42;1.70;;;;;;;16.61;100.00;98995.50;5016637;28;20026;-80
2023/08/02 09:02:43;;;;;;;2.60;1.90;;;;;;;17.75;100.00;99105.50;4934378;28;20086;-79
2023/08/02 09:05:08;;;;;;;4.57;2.33;;;;;;;18.31;100.00;99103.84;4978405;28;20027;-84
2023/08/02 09:07:34;;;;;;;3.35;2.13;;;;;;;18.95;100.00;99102.09;4977337;28;20066;-81
2023/08/02 09:09:59;;;;;;;2.45;2.20;;;;;;;19.41;100.00;99105.75;4977187;28;20027;-81
2023/08/02 09:12:25;;;;;;;2.88;1.73;;;;;;;19.65;100.00;99114.13;4977005;28;20031;-81
2023/08/02 09:15:01;;;;;;;2.20;1.90;;;;;;;19.55;100.00;99106.59;4977189;28;20077;-81
2023/08/02 09:17:27;;;;;;;3.17;2.03;;;;;;;19.62;100.00;99112.72;4976923;28;20031;-80
2023/08/02 09:20:07;;;;;;;2.88;1.90;;;;;;;19.93;100.00;99093.84;4976644;28;20361;-80
2023/08/02 09:22:32;;;;;;;2.33;1.73;;;;;;;20.23;100.00;99096.91;4976889;28;20041;-80
2023/08/02 09:24:58;;;;;;;2.38;1.60;;;;;;;20.43;100.00;99075.16;4977041;28;20023;-80
2023/08/02 09:27:29;;;;;;;3.65;1.80;;;;;;;20.71;100.00;99067.84;4977024;28;20388;-80
2023/08/02 09:29:55;;;;;;;1.98;1.50;;;;;;;20.95;100.00;99086.59;4977026;28;20370;-81
2023/08/02 09:32:22;;;;;;;1.75;1.42;;;;;;;21.05;100.00;99084.34;4989945;28;20044;-78
2023/08/02 09:34:57;;;;;;;2.08;1.40;;;;;;;20.81;100.00;99059.56;4998194;28;20479;-80
2023/08/02 09:37:34;;;;;;;1.27;1.17;;;;;;;20.78;100.00;99073.91;5015684;28;20033;-79
2023/08/02 09:40:04;;;;;;;2.35;1.35;;;;;;;20.82;100.00;99072.47;5015873;28;20083;-78
2023/08/02 09:42:30;;;;;;;2.27;1.57;;;;;;;20.82;100.00;99076.91;5015718;28;20053;-80
2023/08/02 09:45:00;;;;;;;2.17;1.35;;;;;;;20.79;100.00;99074.69;5015615;28;20026;-79
2023/08/02 09:47:27;;;;;;;1.40;1.30;;;;;;;20.57;100.00;99048.72;5015591;28;20399;-80
2023/08/02 09:50:05;;;;;;;2.17;1.30;;;;;;;20.84;100.00;99070.47;5015771;28;20018;-78
2023/08/02 09:52:30;;;;;;;2.67;1.70;;;;;;;20.71;100.00;99041.63;5015449;28;20033;-80
2023/08/02 09:54:56;;;;;;;3.50;1.30;;;;;;;20.84;100.00;99059.97;5015668;28;20022;-79
2023/08/02 09:57:25;;;;;;;2.50;1.48;;;;;;;20.97;100.00;99059.13;5014425;28;20030;-80
2023/08/02 09:59:52;;;;;;;2.33;1.50;;;;;;;20.94;100.00;99042.97;5015600;28;20520;-80
2023/08/02 10:02:24;;;;;;;1.83;1.15;;;;;;;21.01;100.00;98992.06;5015618;28;20030;-83
2023/08/02 10:04:54;;;;;;;2.22;1.55;;;;;;;21.69;100.00;99041.44;5000101;23;20086;-88
2023/08/02 10:07:20;;;;;;;1.48;1.23;;;;;;;21.89;100.00;99002.69;4976292;28;20504;-82
2023/08/02 10:09:48;;;;;;;2.30;1.50;;;;;;;22.42;100.00;99043.50;4976198;28;20035;-83
2023/08/02 10:12:18;;;;;;;1.63;1.40;;;;;;;22.71;100.00;99042.00;4976057;28;20035;-81
2023/08/02 10:14:44;;;;;;;2.20;1.20;;;;;;;22.77;100.00;99022.72;4976170;28;20030;-82
2023/08/02 10:17:11;;;;;;;1.42;1.05;;;;;;;22.65;100.00;99030.53;4975962;28;20028;-79
2023/08/02 10:19:37;;;;;;;1.38;1.20;;;;;;;22.03;100.00;98937.69;4974896;28;20030;-84
2023/08/02 10:22:04;;;;;;;3.38;1.25;;;;;;;22.43;100.00;98997.81;4974044;28;20030;-82
2023/08/02 10:24:29;;;;;;;1.52;1.13;;;;;;;22.47;100.00;98980.56;4976333;28;20026;-82
2023/08/02 10:26:56;;;;;;;1.55;0.90;;;;;;;22.25;100.00;98967.03;4975758;28;20051;-79
2023/08/02 10:29:25;;;;;;;1.10;0.95;;;;;;;22.18;100.00;98943.41;4975155;28;20030;-81
2023/08/02 10:31:50;;;;;;;1.50;1.05;;;;;;;22.37;100.00;98982.88;4974445;28;20102;-79
2023/08/02 10:34:34;;;;;;;1.50;0.90;;;;;;;22.33;100.00;98983.31;4975074;28;20510;-81
2023/08/02 10:36:59;;;;;;;2.28;0.90;;;;;;;21.96;100.00;98986.88;4974324;28;20043;-82
2023/08/02 10:39:45;;;;;;;2.00;1.08;;;;;;;21.74;100.00;98966.22;4975084;28;20042;-82
2023/08/02 10:42:15;;;;;;;2.05;0.95;;;;;;;21.66;100.00;98984.88;4878520;29;20115;-82
2023/08/02 10:44:57;;;;;;;1.02;0.93;;;;;;;21.59;100.00;98984.09;4878035;29;20499;-81
2023/08/02 10:47:29;;;;;;;1.48;1.00;;;;;;;21.60;100.00;98971.78;4886843;29;20045;-81
2023/08/02 10:49:56;;;;;;;2.17;1.27;;;;;;;21.28;100.00;98945.53;4889972;29;20071;-83
2023/08/02 10:52:42;;;;;;;2.25;1.13;;;;;;;21.31;100.00;98968.72;4897504;29;20039;-79
2023/08/02 10:55:18;;;;;;;3.88;0.95;;;;;;;21.09;100.00;98952.47;4891262;29;20037;-81
2023/08/02 10:57:56;;;;;;;1.70;1.30;;;;;;;21.00;100.00;98968.66;4877918;29;20047;-80
2023/08/02 11:00:25;;;;;;;1.85;1.20;;;;;;;20.43;100.00;98939.63;4878138;29;20059;-81
2023/08/02 11:02:55;;;;;;;2.33;1.50;;;;;;;20.41;100.00;98961.78;4878032;29;20048;-73
2023/08/02 11:05:49;;;;;;;3.70;2.00;;;;;;;20.33;100.00;98960.19;4877651;29;20109;-78
2023/08/02 11:08:15;;;;;;;2.83;1.48;;;;;;;20.07;100.00;98915.69;4877873;29;20116;-78
2023/08/02 11:10:47;;;;;;;2.50;1.45;;;;;;;20.32;100.00;98942.84;4877431;29;20132;-78
2023/08/02 11:13:13;;;;;;;4.18;2.00;;;;;;;20.46;100.00;98938.41;4878010;29;20048;-74
2023/08/02 11:15:38;;;;;;;2.83;1.70;;;;;;;20.55;100.00;98945.84;4877867;29;20025;-77
2023/08/02 11:18:04;;;;;;;3.55;1.77;;;;;;;20.28;100.00;98944.28;4877924;28;20041;-74
2023/08/02 11:20:32;;;;;;;3.70;2.20;;;;;;;20.18;100.00;98967.47;4974911;28;20448;-76